Terminal Aerodrome Forecast
Issued by NWS

Home | Current Version | Previous Version | Text Only | Print | Product List | Glossary Off
Versions: 1 2 3 4 5 6 7 8 9 10 11 12 13 14 15 16

744
FTUS43 KGRB 212105 AAC
TAFMTW
TAF AMD
KMTW 212105Z 2121/2218 08005KT 1/4SM FG BKN002
     FM220400 05005KT 1/2SM -DZ FG OVC003
     FM220600 04011G19KT 3/4SM -RA BR OVC006
     FM221100 04014G24KT 1SM -RASN BR OVC004
     FM221500 04018G28KT 3SM -RA BR OVC006=

USA.gov is the U.S. government's official web portal to all federal, state and local government web resources and services.